sensor_id;sensor_type;location;lat;lon;timestamp;P1;durP1;ratioP1;P2;durP2;ratioP2
25707;SDS011;13567;61.652;17.100;2022-11-11T00:01:16;7.03;;;1.00;;
25707;SDS011;13567;61.652;17.100;2022-11-11T00:03:44;3.87;;;1.07;;
25707;SDS011;13567;61.652;17.100;2022-11-11T00:06:15;2.07;;;0.73;;
25707;SDS011;13567;61.652;17.100;2022-11-11T00:08:45;6.43;;;0.77;;
25707;SDS011;13567;61.652;17.100;2022-11-11T00:11:13;7.13;;;1.10;;
25707;SDS011;13567;61.652;17.100;2022-11-11T00:13:42;4.17;;;0.90;;
25707;SDS011;13567;61.652;17.100;2022-11-11T00:16:10;4.67;;;1.03;;
25707;SDS011;13567;61.652;17.100;2022-11-11T00:18:47;2.37;;;1.00;;
25707;SDS011;13567;61.652;17.100;2022-11-11T00:21:32;2.07;;;0.80;;
25707;SDS011;13567;61.652;17.100;2022-11-11T00:24:03;7.13;;;1.10;;
25707;SDS011;13567;61.652;17.100;2022-11-11T00:26:50;4.72;;;1.35;;
25707;SDS011;13567;61.652;17.100;2022-11-11T00:29:17;5.67;;;1.10;;
25707;SDS011;13567;61.652;17.100;2022-11-11T00:31:46;5.60;;;0.97;;
25707;SDS011;13567;61.652;17.100;2022-11-11T00:34:32;4.50;;;1.10;;
25707;SDS011;13567;61.652;17.100;2022-11-11T00:36:59;4.38;;;0.90;;
25707;SDS011;13567;61.652;17.100;2022-11-11T00:39:27;7.03;;;1.00;;
25707;SDS011;13567;61.652;17.100;2022-11-11T00:41:54;9.05;;;1.50;;
25707;SDS011;13567;61.652;17.100;2022-11-11T00:44:21;8.73;;;1.50;;
25707;SDS011;13567;61.652;17.100;2022-11-11T00:46:48;5.15;;;1.33;;
25707;SDS011;13567;61.652;17.100;2022-11-11T00:49:34;8.73;;;2.10;;
25707;SDS011;13567;61.652;17.100;2022-11-11T00:52:19;11.80;;;2.40;;
25707;SDS011;13567;61.652;17.100;2022-11-11T00:54:46;12.85;;;2.40;;
25707;SDS011;13567;61.652;17.100;2022-11-11T00:57:14;16.80;;;2.25;;
25707;SDS011;13567;61.652;17.100;2022-11-11T00:59:41;12.60;;;2.22;;
25707;SDS011;13567;61.652;17.100;2022-11-11T01:02:08;14.75;;;3.15;;
25707;SDS011;13567;61.652;17.100;2022-11-11T01:04:36;17.63;;;2.95;;
25707;SDS011;13567;61.652;17.100;2022-11-11T01:07:03;16.25;;;2.50;;
25707;SDS011;13567;61.652;17.100;2022-11-11T01:09:30;13.90;;;2.38;;
25707;SDS011;13567;61.652;17.100;2022-11-11T01:11:57;15.63;;;2.45;;
25707;SDS011;13567;61.652;17.100;2022-11-11T01:14:24;13.02;;;2.63;;
25707;SDS011;13567;61.652;17.100;2022-11-11T01:16:51;11.60;;;1.88;;
25707;SDS011;13567;61.652;17.100;2022-11-11T01:19:18;16.48;;;2.50;;
25707;SDS011;13567;61.652;17.100;2022-11-11T01:21:45;15.00;;;2.42;;
25707;SDS011;13567;61.652;17.100;2022-11-11T01:24:12;15.52;;;2.58;;
25707;SDS011;13567;61.652;17.100;2022-11-11T01:26:39;11.40;;;2.53;;
25707;SDS011;13567;61.652;17.100;2022-11-11T01:29:06;12.82;;;2.50;;
25707;SDS011;13567;61.652;17.100;2022-11-11T01:31:33;15.63;;;2.47;;
25707;SDS011;13567;61.652;17.100;2022-11-11T01:34:00;16.67;;;3.05;;
25707;SDS011;13567;61.652;17.100;2022-11-11T01:36:27;15.43;;;2.85;;
25707;SDS011;13567;61.652;17.100;2022-11-11T01:38:56;13.93;;;2.40;;
25707;SDS011;13567;61.652;17.100;2022-11-11T01:41:29;17.27;;;2.42;;
25707;SDS011;13567;61.652;17.100;2022-11-11T01:46:31;11.98;;;2.40;;
25707;SDS011;13567;61.652;17.100;2022-11-11T01:49:04;13.45;;;2.60;;
25707;SDS011;13567;61.652;17.100;2022-11-11T01:54:47;16.45;;;2.63;;
25707;SDS011;13567;61.652;17.100;2022-11-11T02:00:06;13.48;;;2.67;;
25707;SDS011;13567;61.652;17.100;2022-11-11T02:02:40;13.25;;;2.70;;
25707;SDS011;13567;61.652;17.100;2022-11-11T02:05:13;11.20;;;2.22;;
25707;SDS011;13567;61.652;17.100;2022-11-11T02:08:03;15.23;;;2.70;;
25707;SDS011;13567;61.652;17.100;2022-11-11T02:10:36;11.98;;;2.65;;
25707;SDS011;13567;61.652;17.100;2022-11-11T02:13:09;15.35;;;2.42;;
25707;SDS011;13567;61.652;17.100;2022-11-11T02:15:57;13.40;;;2.75;;
25707;SDS011;13567;61.652;17.100;2022-11-11T02:18:24;15.95;;;3.20;;
25707;SDS011;13567;61.652;17.100;2022-11-11T02:20:53;15.95;;;2.72;;
25707;SDS011;13567;61.652;17.100;2022-11-11T02:25:58;12.93;;;2.45;;
25707;SDS011;13567;61.652;17.100;2022-11-11T02:28:28;17.33;;;2.88;;
25707;SDS011;13567;61.652;17.100;2022-11-11T02:30:57;17.73;;;2.78;;
25707;SDS011;13567;61.652;17.100;2022-11-11T02:33:24;18.50;;;3.13;;
25707;SDS011;13567;61.652;17.100;2022-11-11T02:35:53;14.23;;;3.55;;
25707;SDS011;13567;61.652;17.100;2022-11-11T02:38:22;14.38;;;2.25;;
25707;SDS011;13567;61.652;17.100;2022-11-11T02:40:51;15.07;;;2.45;;
25707;SDS011;13567;61.652;17.100;2022-11-11T02:43:36;13.70;;;2.55;;
25707;SDS011;13567;61.652;17.100;2022-11-11T02:46:05;16.40;;;2.58;;
25707;SDS011;13567;61.652;17.100;2022-11-11T02:48:33;11.05;;;2.08;;
25707;SDS011;13567;61.652;17.100;2022-11-11T02:51:00;17.70;;;3.67;;
25707;SDS011;13567;61.652;17.100;2022-11-11T02:53:27;13.60;;;2.67;;
25707;SDS011;13567;61.652;17.100;2022-11-11T02:55:55;11.35;;;2.20;;
25707;SDS011;13567;61.652;17.100;2022-11-11T02:58:22;15.63;;;2.42;;
25707;SDS011;13567;61.652;17.100;2022-11-11T03:00:49;11.00;;;2.17;;
25707;SDS011;13567;61.652;17.100;2022-11-11T03:03:16;15.98;;;2.63;;
25707;SDS011;13567;61.652;17.100;2022-11-11T03:05:43;11.50;;;2.05;;
25707;SDS011;13567;61.652;17.100;2022-11-11T03:08:10;15.60;;;3.33;;
25707;SDS011;13567;61.652;17.100;2022-11-11T03:10:38;13.93;;;2.50;;
25707;SDS011;13567;61.652;17.100;2022-11-11T03:13:05;14.60;;;2.28;;
25707;SDS011;13567;61.652;17.100;2022-11-11T03:15:32;13.25;;;2.58;;
25707;SDS011;13567;61.652;17.100;2022-11-11T03:17:59;13.00;;;3.00;;
25707;SDS011;13567;61.652;17.100;2022-11-11T03:20:26;11.65;;;2.63;;
25707;SDS011;13567;61.652;17.100;2022-11-11T03:23:13;12.50;;;2.22;;
25707;SDS011;13567;61.652;17.100;2022-11-11T03:25:42;13.95;;;2.65;;
25707;SDS011;13567;61.652;17.100;2022-11-11T03:28:14;14.43;;;2.42;;
25707;SDS011;13567;61.652;17.100;2022-11-11T03:30:46;14.57;;;2.47;;
25707;SDS011;13567;61.652;17.100;2022-11-11T03:33:15;15.57;;;2.20;;
25707;SDS011;13567;61.652;17.100;2022-11-11T03:35:45;15.10;;;2.30;;
25707;SDS011;13567;61.652;17.100;2022-11-11T03:38:13;13.13;;;2.22;;
25707;SDS011;13567;61.652;17.100;2022-11-11T03:40:54;10.27;;;2.20;;
25707;SDS011;13567;61.652;17.100;2022-11-11T03:43:23;9.30;;;2.08;;
25707;SDS011;13567;61.652;17.100;2022-11-11T03:45:53;13.38;;;2.33;;
25707;SDS011;13567;61.652;17.100;2022-11-11T03:48:23;10.60;;;2.42;;
25707;SDS011;13567;61.652;17.100;2022-11-11T03:50:51;12.25;;;1.92;;
25707;SDS011;13567;61.652;17.100;2022-11-11T03:53:18;12.63;;;2.05;;
25707;SDS011;13567;61.652;17.100;2022-11-11T03:55:47;11.20;;;2.45;;
25707;SDS011;13567;61.652;17.100;2022-11-11T03:58:15;11.20;;;2.08;;
25707;SDS011;13567;61.652;17.100;2022-11-11T04:00:43;13.65;;;1.90;;
25707;SDS011;13567;61.652;17.100;2022-11-11T04:03:11;13.57;;;2.13;;
25707;SDS011;13567;61.652;17.100;2022-11-11T04:06:01;9.13;;;1.70;;
25707;SDS011;13567;61.652;17.100;2022-11-11T04:08:48;15.57;;;2.20;;
25707;SDS011;13567;61.652;17.100;2022-11-11T04:11:36;14.85;;;2.60;;
25707;SDS011;13567;61.652;17.100;2022-11-11T04:14:09;11.18;;;2.05;;
25707;SDS011;13567;61.652;17.100;2022-11-11T04:16:57;10.65;;;1.88;;
25707;SDS011;13567;61.652;17.100;2022-11-11T04:19:24;14.65;;;2.20;;
25707;SDS011;13567;61.652;17.100;2022-11-11T04:22:10;14.35;;;2.22;;
25707;SDS011;13567;61.652;17.100;2022-11-11T04:24:37;14.15;;;2.38;;
25707;SDS011;13567;61.652;17.100;2022-11-11T04:27:23;14.50;;;2.63;;
25707;SDS011;13567;61.652;17.100;2022-11-11T04:29:50;14.88;;;2.35;;
25707;SDS011;13567;61.652;17.100;2022-11-11T04:32:19;13.27;;;2.13;;
25707;SDS011;13567;61.652;17.100;2022-11-11T04:35:06;11.85;;;2.08;;
25707;SDS011;13567;61.652;17.100;2022-11-11T04:37:35;15.25;;;2.42;;
25707;SDS011;13567;61.652;17.100;2022-11-11T04:40:10;9.15;;;2.17;;
25707;SDS011;13567;61.652;17.100;2022-11-11T04:42:56;12.05;;;2.20;;
25707;SDS011;13567;61.652;17.100;2022-11-11T04:45:23;11.43;;;2.38;;
25707;SDS011;13567;61.652;17.100;2022-11-11T04:50:28;10.48;;;2.30;;
25707;SDS011;13567;61.652;17.100;2022-11-11T04:53:00;11.50;;;1.88;;
25707;SDS011;13567;61.652;17.100;2022-11-11T04:55:27;9.05;;;1.75;;
25707;SDS011;13567;61.652;17.100;2022-11-11T04:58:14;8.85;;;1.83;;
25707;SDS011;13567;61.652;17.100;2022-11-11T05:00:42;13.18;;;2.60;;
25707;SDS011;13567;61.652;17.100;2022-11-11T05:03:10;11.43;;;2.22;;
25707;SDS011;13567;61.652;17.100;2022-11-11T05:05:45;13.18;;;2.17;;
25707;SDS011;13567;61.652;17.100;2022-11-11T05:08:31;11.18;;;2.33;;
25707;SDS011;13567;61.652;17.100;2022-11-11T05:11:19;12.02;;;2.10;;
25707;SDS011;13567;61.652;17.100;2022-11-11T05:13:47;13.05;;;2.25;;
25707;SDS011;13567;61.652;17.100;2022-11-11T05:16:35;13.32;;;2.50;;
25707;SDS011;13567;61.652;17.100;2022-11-11T05:19:23;11.88;;;1.95;;
25707;SDS011;13567;61.652;17.100;2022-11-11T05:24:51;13.15;;;2.25;;
25707;SDS011;13567;61.652;17.100;2022-11-11T05:27:37;10.15;;;2.05;;
25707;SDS011;13567;61.652;17.100;2022-11-11T05:30:04;11.45;;;1.95;;
25707;SDS011;13567;61.652;17.100;2022-11-11T05:32:33;12.15;;;2.03;;
25707;SDS011;13567;61.652;17.100;2022-11-11T05:35:00;10.90;;;1.80;;
25707;SDS011;13567;61.652;17.100;2022-11-11T05:37:27;14.05;;;1.90;;
25707;SDS011;13567;61.652;17.100;2022-11-11T05:39:54;12.20;;;2.47;;
25707;SDS011;13567;61.652;17.100;2022-11-11T05:42:21;11.73;;;1.73;;
25707;SDS011;13567;61.652;17.100;2022-11-11T05:44:48;13.43;;;2.28;;
25707;SDS011;13567;61.652;17.100;2022-11-11T05:47:16;10.88;;;2.17;;
25707;SDS011;13567;61.652;17.100;2022-11-11T05:49:43;8.50;;;2.42;;
25707;SDS011;13567;61.652;17.100;2022-11-11T05:52:10;12.30;;;2.00;;
25707;SDS011;13567;61.652;17.100;2022-11-11T05:54:39;13.32;;;2.28;;
25707;SDS011;13567;61.652;17.100;2022-11-11T05:57:06;10.52;;;1.80;;
25707;SDS011;13567;61.652;17.100;2022-11-11T05:59:33;10.05;;;1.90;;
25707;SDS011;13567;61.652;17.100;2022-11-11T06:02:01;11.45;;;2.22;;
25707;SDS011;13567;61.652;17.100;2022-11-11T06:04:29;8.77;;;1.75;;
25707;SDS011;13567;61.652;17.100;2022-11-11T06:06:57;5.70;;;1.52;;
25707;SDS011;13567;61.652;17.100;2022-11-11T06:09:24;11.35;;;1.77;;
25707;SDS011;13567;61.652;17.100;2022-11-11T06:11:51;12.55;;;2.20;;
25707;SDS011;13567;61.652;17.100;2022-11-11T06:14:18;8.40;;;1.60;;
25707;SDS011;13567;61.652;17.100;2022-11-11T06:16:45;8.38;;;1.80;;
25707;SDS011;13567;61.652;17.100;2022-11-11T06:19:12;13.63;;;2.08;;
25707;SDS011;13567;61.652;17.100;2022-11-11T06:21:39;14.00;;;2.40;;
25707;SDS011;13567;61.652;17.100;2022-11-11T06:24:26;8.35;;;1.60;;
25707;SDS011;13567;61.652;17.100;2022-11-11T06:26:53;12.52;;;2.35;;
25707;SDS011;13567;61.652;17.100;2022-11-11T06:29:21;6.22;;;1.50;;
25707;SDS011;13567;61.652;17.100;2022-11-11T06:31:48;10.40;;;1.73;;
25707;SDS011;13567;61.652;17.100;2022-11-11T06:34:16;14.43;;;2.25;;
25707;SDS011;13567;61.652;17.100;2022-11-11T06:36:43;10.73;;;1.70;;
25707;SDS011;13567;61.652;17.100;2022-11-11T06:39:10;11.10;;;1.67;;
25707;SDS011;13567;61.652;17.100;2022-11-11T06:41:37;8.77;;;1.98;;
25707;SDS011;13567;61.652;17.100;2022-11-11T06:44:04;9.55;;;1.60;;
25707;SDS011;13567;61.652;17.100;2022-11-11T06:46:31;9.93;;;1.40;;
25707;SDS011;13567;61.652;17.100;2022-11-11T06:49:00;8.55;;;1.85;;
25707;SDS011;13567;61.652;17.100;2022-11-11T06:51:29;8.18;;;1.45;;
25707;SDS011;13567;61.652;17.100;2022-11-11T06:53:56;10.07;;;2.25;;
25707;SDS011;13567;61.652;17.100;2022-11-11T06:56:23;10.15;;;1.50;;
25707;SDS011;13567;61.652;17.100;2022-11-11T06:58:50;11.13;;;1.85;;
25707;SDS011;13567;61.652;17.100;2022-11-11T07:01:17;9.43;;;1.50;;
25707;SDS011;13567;61.652;17.100;2022-11-11T07:03:44;8.50;;;1.67;;
25707;SDS011;13567;61.652;17.100;2022-11-11T07:06:11;5.55;;;1.10;;
25707;SDS011;13567;61.652;17.100;2022-11-11T07:08:38;9.40;;;1.58;;
25707;SDS011;13567;61.652;17.100;2022-11-11T07:11:09;9.55;;;1.58;;
25707;SDS011;13567;61.652;17.100;2022-11-11T07:13:44;10.52;;;1.63;;
25707;SDS011;13567;61.652;17.100;2022-11-11T07:16:11;11.00;;;1.55;;
25707;SDS011;13567;61.652;17.100;2022-11-11T07:18:38;5.53;;;1.13;;
25707;SDS011;13567;61.652;17.100;2022-11-11T07:21:05;12.13;;;1.75;;
25707;SDS011;13567;61.652;17.100;2022-11-11T07:23:32;6.78;;;1.30;;
25707;SDS011;13567;61.652;17.100;2022-11-11T07:25:59;5.68;;;1.42;;
25707;SDS011;13567;61.652;17.100;2022-11-11T07:28:26;4.68;;;1.30;;
25707;SDS011;13567;61.652;17.100;2022-11-11T07:30:53;5.40;;;1.50;;
25707;SDS011;13567;61.652;17.100;2022-11-11T07:33:20;10.48;;;1.73;;
25707;SDS011;13567;61.652;17.100;2022-11-11T07:35:50;9.85;;;1.98;;
25707;SDS011;13567;61.652;17.100;2022-11-11T07:38:17;8.38;;;1.30;;
25707;SDS011;13567;61.652;17.100;2022-11-11T07:40:44;6.68;;;1.20;;
25707;SDS011;13567;61.652;17.100;2022-11-11T07:43:11;7.95;;;1.50;;
25707;SDS011;13567;61.652;17.100;2022-11-11T07:45:38;7.43;;;1.20;;
25707;SDS011;13567;61.652;17.100;2022-11-11T07:48:06;9.60;;;1.65;;
25707;SDS011;13567;61.652;17.100;2022-11-11T07:50:33;8.45;;;1.42;;
25707;SDS011;13567;61.652;17.100;2022-11-11T07:53:00;9.63;;;1.40;;
25707;SDS011;13567;61.652;17.100;2022-11-11T07:55:27;7.22;;;1.27;;
25707;SDS011;13567;61.652;17.100;2022-11-11T07:57:54;6.03;;;1.27;;
25707;SDS011;13567;61.652;17.100;2022-11-11T08:00:21;6.55;;;1.45;;
25707;SDS011;13567;61.652;17.100;2022-11-11T08:02:48;7.00;;;1.50;;
25707;SDS011;13567;61.652;17.100;2022-11-11T08:05:15;10.82;;;1.58;;
25707;SDS011;13567;61.652;17.100;2022-11-11T08:07:43;9.77;;;1.52;;
25707;SDS011;13567;61.652;17.100;2022-11-11T08:10:10;9.80;;;1.75;;
25707;SDS011;13567;61.652;17.100;2022-11-11T08:12:37;8.35;;;1.75;;
25707;SDS011;13567;61.652;17.100;2022-11-11T08:15:23;8.27;;;1.58;;
25707;SDS011;13567;61.652;17.100;2022-11-11T08:17:50;11.75;;;2.03;;
25707;SDS011;13567;61.652;17.100;2022-11-11T08:20:17;9.35;;;1.27;;
25707;SDS011;13567;61.652;17.100;2022-11-11T08:22:44;9.18;;;1.42;;
25707;SDS011;13567;61.652;17.100;2022-11-11T08:25:31;9.52;;;1.52;;
25707;SDS011;13567;61.652;17.100;2022-11-11T08:27:59;10.13;;;1.58;;
25707;SDS011;13567;61.652;17.100;2022-11-11T08:30:28;11.38;;;2.10;;
25707;SDS011;13567;61.652;17.100;2022-11-11T08:33:01;9.82;;;1.45;;
25707;SDS011;13567;61.652;17.100;2022-11-11T08:35:49;12.35;;;2.08;;
25707;SDS011;13567;61.652;17.100;2022-11-11T08:38:19;8.60;;;1.75;;
25707;SDS011;13567;61.652;17.100;2022-11-11T08:40:47;8.35;;;1.88;;
25707;SDS011;13567;61.652;17.100;2022-11-11T08:43:14;9.98;;;1.90;;
25707;SDS011;13567;61.652;17.100;2022-11-11T08:45:41;9.98;;;1.95;;
25707;SDS011;13567;61.652;17.100;2022-11-11T08:48:09;10.57;;;1.90;;
25707;SDS011;13567;61.652;17.100;2022-11-11T08:50:37;8.68;;;1.80;;
25707;SDS011;13567;61.652;17.100;2022-11-11T08:53:06;11.60;;;1.77;;
25707;SDS011;13567;61.652;17.100;2022-11-11T08:55:35;10.02;;;1.70;;
25707;SDS011;13567;61.652;17.100;2022-11-11T08:58:03;10.57;;;2.03;;
25707;SDS011;13567;61.652;17.100;2022-11-11T09:00:32;7.80;;;1.67;;
25707;SDS011;13567;61.652;17.100;2022-11-11T09:03:00;7.35;;;1.80;;
25707;SDS011;13567;61.652;17.100;2022-11-11T09:05:27;8.90;;;1.70;;
25707;SDS011;13567;61.652;17.100;2022-11-11T09:07:55;9.32;;;1.48;;
25707;SDS011;13567;61.652;17.100;2022-11-11T09:10:22;8.50;;;1.60;;
25707;SDS011;13567;61.652;17.100;2022-11-11T09:12:54;8.57;;;1.85;;
25707;SDS011;13567;61.652;17.100;2022-11-11T09:15:22;10.20;;;1.95;;
25707;SDS011;13567;61.652;17.100;2022-11-11T09:17:49;10.63;;;1.88;;
25707;SDS011;13567;61.652;17.100;2022-11-11T09:20:16;12.13;;;1.70;;
25707;SDS011;13567;61.652;17.100;2022-11-11T09:22:50;8.63;;;1.60;;
25707;SDS011;13567;61.652;17.100;2022-11-11T09:25:18;9.88;;;1.65;;
25707;SDS011;13567;61.652;17.100;2022-11-11T09:27:56;10.38;;;1.35;;
25707;SDS011;13567;61.652;17.100;2022-11-11T09:30:25;12.77;;;2.03;;
25707;SDS011;13567;61.652;17.100;2022-11-11T09:32:53;17.55;;;2.22;;
25707;SDS011;13567;61.652;17.100;2022-11-11T09:35:20;10.77;;;2.00;;
25707;SDS011;13567;61.652;17.100;2022-11-11T09:37:57;11.65;;;2.03;;
25707;SDS011;13567;61.652;17.100;2022-11-11T09:40:26;9.90;;;1.83;;
25707;SDS011;13567;61.652;17.100;2022-11-11T09:51:58;10.65;;;1.80;;
25707;SDS011;13567;61.652;17.100;2022-11-11T09:54:58;9.70;;;1.65;;
25707;SDS011;13567;61.652;17.100;2022-11-11T09:58:03;7.88;;;1.25;;
25707;SDS011;13567;61.652;17.100;2022-11-11T10:00:36;10.68;;;1.80;;
25707;SDS011;13567;61.652;17.100;2022-11-11T10:05:46;7.75;;;1.50;;
25707;SDS011;13567;61.652;17.100;2022-11-11T10:08:25;10.13;;;1.70;;
25707;SDS011;13567;61.652;17.100;2022-11-11T10:10:57;7.97;;;1.38;;
25707;SDS011;13567;61.652;17.100;2022-11-11T10:13:28;7.82;;;1.35;;
25707;SDS011;13567;61.652;17.100;2022-11-11T10:24:44;7.70;;;1.50;;
25707;SDS011;13567;61.652;17.100;2022-11-11T10:27:20;9.23;;;1.40;;
25707;SDS011;13567;61.652;17.100;2022-11-11T10:29:48;9.13;;;1.52;;
25707;SDS011;13567;61.652;17.100;2022-11-11T10:32:29;10.50;;;1.88;;
25707;SDS011;13567;61.652;17.100;2022-11-11T10:35:04;9.88;;;1.73;;
25707;SDS011;13567;61.652;17.100;2022-11-11T10:37:43;8.85;;;1.63;;
25707;SDS011;13567;61.652;17.100;2022-11-11T10:40:17;6.22;;;1.70;;
25707;SDS011;13567;61.652;17.100;2022-11-11T10:42:50;10.30;;;1.80;;
25707;SDS011;13567;61.652;17.100;2022-11-11T10:45:23;11.13;;;1.90;;
25707;SDS011;13567;61.652;17.100;2022-11-11T10:50:26;11.45;;;1.75;;
25707;SDS011;13567;61.652;17.100;2022-11-11T10:59:08;7.03;;;1.33;;
25707;SDS011;13567;61.652;17.100;2022-11-11T11:01:53;8.23;;;1.50;;
25707;SDS011;13567;61.652;17.100;2022-11-11T11:04:28;7.75;;;1.40;;
25707;SDS011;13567;61.652;17.100;2022-11-11T11:07:20;11.13;;;1.95;;
25707;SDS011;13567;61.652;17.100;2022-11-11T11:12:45;9.57;;;1.70;;
25707;SDS011;13567;61.652;17.100;2022-11-11T11:15:20;8.85;;;1.80;;
25707;SDS011;13567;61.652;17.100;2022-11-11T11:17:53;7.53;;;1.70;;
25707;SDS011;13567;61.652;17.100;2022-11-11T11:20:33;8.25;;;1.77;;
25707;SDS011;13567;61.652;17.100;2022-11-11T11:23:00;8.82;;;1.40;;
25707;SDS011;13567;61.652;17.100;2022-11-11T11:25:29;9.13;;;1.77;;
25707;SDS011;13567;61.652;17.100;2022-11-11T11:30:35;9.82;;;2.10;;
25707;SDS011;13567;61.652;17.100;2022-11-11T11:33:03;9.65;;;1.83;;
25707;SDS011;13567;61.652;17.100;2022-11-11T11:35:33;5.82;;;1.23;;
25707;SDS011;13567;61.652;17.100;2022-11-11T11:38:05;8.27;;;1.50;;
25707;SDS011;13567;61.652;17.100;2022-11-11T11:40:47;9.77;;;1.55;;
25707;SDS011;13567;61.652;17.100;2022-11-11T11:43:23;9.25;;;1.77;;
25707;SDS011;13567;61.652;17.100;2022-11-11T11:46:02;7.13;;;1.75;;
25707;SDS011;13567;61.652;17.100;2022-11-11T11:56:59;9.02;;;1.52;;
25707;SDS011;13567;61.652;17.100;2022-11-11T11:59:36;10.98;;;2.22;;
25707;SDS011;13567;61.652;17.100;2022-11-11T12:18:49;7.80;;;1.58;;
25707;SDS011;13567;61.652;17.100;2022-11-11T12:21:20;7.20;;;1.30;;
25707;SDS011;13567;61.652;17.100;2022-11-11T12:24:03;10.68;;;1.70;;
25707;SDS011;13567;61.652;17.100;2022-11-11T12:26:48;8.65;;;1.55;;
25707;SDS011;13567;61.652;17.100;2022-11-11T12:29:47;9.18;;;1.63;;
25707;SDS011;13567;61.652;17.100;2022-11-11T12:40:51;9.75;;;2.10;;
25707;SDS011;13567;61.652;17.100;2022-11-11T12:43:30;7.93;;;1.60;;
25707;SDS011;13567;61.652;17.100;2022-11-11T12:46:19;9.63;;;1.70;;
25707;SDS011;13567;61.652;17.100;2022-11-11T12:49:05;9.02;;;1.90;;
25707;SDS011;13567;61.652;17.100;2022-11-11T13:00:12;8.68;;;1.98;;
25707;SDS011;13567;61.652;17.100;2022-11-11T13:15:20;8.98;;;1.85;;
25707;SDS011;13567;61.652;17.100;2022-11-11T13:17:51;8.68;;;1.63;;
25707;SDS011;13567;61.652;17.100;2022-11-11T13:23:10;11.52;;;2.22;;
25707;SDS011;13567;61.652;17.100;2022-11-11T13:25:39;4.85;;;0.90;;
25707;SDS011;13567;61.652;17.100;2022-11-11T13:28:38;11.50;;;2.38;;
25707;SDS011;13567;61.652;17.100;2022-11-11T13:33:50;8.23;;;1.45;;
25707;SDS011;13567;61.652;17.100;2022-11-11T13:36:22;5.97;;;1.50;;
25707;SDS011;13567;61.652;17.100;2022-11-11T13:38:55;9.27;;;1.60;;
25707;SDS011;13567;61.652;17.100;2022-11-11T13:41:26;8.20;;;1.60;;
25707;SDS011;13567;61.652;17.100;2022-11-11T13:43:57;10.40;;;1.85;;
25707;SDS011;13567;61.652;17.100;2022-11-11T13:46:30;6.45;;;1.40;;
25707;SDS011;13567;61.652;17.100;2022-11-11T13:48:58;7.95;;;1.50;;
25707;SDS011;13567;61.652;17.100;2022-11-11T13:53:59;9.85;;;1.65;;
25707;SDS011;13567;61.652;17.100;2022-11-11T13:56:36;10.93;;;1.73;;
25707;SDS011;13567;61.652;17.100;2022-11-11T13:59:31;8.80;;;1.20;;
25707;SDS011;13567;61.652;17.100;2022-11-11T14:10:40;7.80;;;1.80;;
25707;SDS011;13567;61.652;17.100;2022-11-11T14:15:50;10.60;;;1.70;;
25707;SDS011;13567;61.652;17.100;2022-11-11T14:20:52;9.63;;;1.73;;
25707;SDS011;13567;61.652;17.100;2022-11-11T14:26:24;8.27;;;1.70;;
25707;SDS011;13567;61.652;17.100;2022-11-11T14:28:54;11.25;;;1.77;;
25707;SDS011;13567;61.652;17.100;2022-11-11T14:31:28;13.60;;;2.00;;
25707;SDS011;13567;61.652;17.100;2022-11-11T14:37:20;11.93;;;2.03;;
25707;SDS011;13567;61.652;17.100;2022-11-11T14:39:57;11.10;;;1.88;;
25707;SDS011;13567;61.652;17.100;2022-11-11T14:45:04;21.60;;;11.13;;
25707;SDS011;13567;61.652;17.100;2022-11-11T14:47:51;12.23;;;2.38;;
25707;SDS011;13567;61.652;17.100;2022-11-11T14:52:59;12.07;;;3.33;;
25707;SDS011;13567;61.652;17.100;2022-11-11T14:55:39;13.05;;;2.72;;
25707;SDS011;13567;61.652;17.100;2022-11-11T15:00:48;9.80;;;1.77;;
25707;SDS011;13567;61.652;17.100;2022-11-11T15:03:36;15.38;;;4.88;;
25707;SDS011;13567;61.652;17.100;2022-11-11T15:23:10;10.70;;;2.92;;
25707;SDS011;13567;61.652;17.100;2022-11-11T15:29:37;16.55;;;3.65;;
25707;SDS011;13567;61.652;17.100;2022-11-11T15:38:09;15.80;;;2.83;;
25707;SDS011;13567;61.652;17.100;2022-11-11T15:40:45;11.00;;;2.25;;
25707;SDS011;13567;61.652;17.100;2022-11-11T15:43:19;11.65;;;2.72;;
25707;SDS011;13567;61.652;17.100;2022-11-11T15:45:59;12.10;;;3.00;;
25707;SDS011;13567;61.652;17.100;2022-11-11T15:48:29;12.70;;;2.78;;
25707;SDS011;13567;61.652;17.100;2022-11-11T15:51:14;14.45;;;2.55;;
25707;SDS011;13567;61.652;17.100;2022-11-11T15:53:48;13.35;;;2.55;;
25707;SDS011;13567;61.652;17.100;2022-11-11T15:56:27;13.65;;;3.85;;
25707;SDS011;13567;61.652;17.100;2022-11-11T15:58:56;15.35;;;3.88;;
25707;SDS011;13567;61.652;17.100;2022-11-11T16:01:25;12.75;;;2.33;;
25707;SDS011;13567;61.652;17.100;2022-11-11T16:03:54;10.82;;;2.78;;
25707;SDS011;13567;61.652;17.100;2022-11-11T16:06:21;14.55;;;2.85;;
25707;SDS011;13567;61.652;17.100;2022-11-11T16:08:50;11.82;;;3.13;;
25707;SDS011;13567;61.652;17.100;2022-11-11T16:11:22;9.90;;;2.38;;
25707;SDS011;13567;61.652;17.100;2022-11-11T16:16:27;13.52;;;2.95;;
25707;SDS011;13567;61.652;17.100;2022-11-11T16:24:57;9.88;;;2.55;;
25707;SDS011;13567;61.652;17.100;2022-11-11T16:27:26;9.63;;;1.90;;
25707;SDS011;13567;61.652;17.100;2022-11-11T16:30:12;12.27;;;2.30;;
25707;SDS011;13567;61.652;17.100;2022-11-11T16:32:42;15.48;;;2.40;;
25707;SDS011;13567;61.652;17.100;2022-11-11T16:38:12;15.13;;;3.50;;
25707;SDS011;13567;61.652;17.100;2022-11-11T16:40:56;14.10;;;2.92;;
25707;SDS011;13567;61.652;17.100;2022-11-11T16:43:28;15.70;;;3.63;;
25707;SDS011;13567;61.652;17.100;2022-11-11T16:46:07;12.43;;;2.88;;
25707;SDS011;13567;61.652;17.100;2022-11-11T16:48:39;16.58;;;3.10;;
25707;SDS011;13567;61.652;17.100;2022-11-11T16:53:44;9.98;;;2.30;;
25707;SDS011;13567;61.652;17.100;2022-11-11T16:56:27;14.27;;;2.55;;
25707;SDS011;13567;61.652;17.100;2022-11-11T16:58:59;15.75;;;2.90;;
25707;SDS011;13567;61.652;17.100;2022-11-11T17:01:39;19.55;;;3.05;;
25707;SDS011;13567;61.652;17.100;2022-11-11T17:04:08;11.82;;;2.00;;
25707;SDS011;13567;61.652;17.100;2022-11-11T17:06:55;12.07;;;2.60;;
25707;SDS011;13567;61.652;17.100;2022-11-11T17:11:54;12.98;;;2.60;;
25707;SDS011;13567;61.652;17.100;2022-11-11T17:14:22;14.43;;;2.33;;
25707;SDS011;13567;61.652;17.100;2022-11-11T17:16:49;14.38;;;2.40;;
25707;SDS011;13567;61.652;17.100;2022-11-11T17:19:17;11.82;;;2.13;;
25707;SDS011;13567;61.652;17.100;2022-11-11T17:21:44;13.57;;;2.85;;
25707;SDS011;13567;61.652;17.100;2022-11-11T17:24:11;12.38;;;2.70;;
25707;SDS011;13567;61.652;17.100;2022-11-11T17:26:40;11.23;;;2.25;;
25707;SDS011;13567;61.652;17.100;2022-11-11T17:29:07;15.60;;;3.05;;
25707;SDS011;13567;61.652;17.100;2022-11-11T17:31:36;14.52;;;2.50;;
25707;SDS011;13567;61.652;17.100;2022-11-11T17:34:07;13.43;;;2.55;;
25707;SDS011;13567;61.652;17.100;2022-11-11T17:36:34;10.65;;;2.30;;
25707;SDS011;13567;61.652;17.100;2022-11-11T17:39:01;16.45;;;3.10;;
25707;SDS011;13567;61.652;17.100;2022-11-11T17:41:29;14.52;;;2.88;;
25707;SDS011;13567;61.652;17.100;2022-11-11T17:43:56;15.20;;;2.30;;
25707;SDS011;13567;61.652;17.100;2022-11-11T17:46:23;14.93;;;3.10;;
25707;SDS011;13567;61.652;17.100;2022-11-11T17:48:54;13.20;;;2.95;;
25707;SDS011;13567;61.652;17.100;2022-11-11T17:51:21;11.23;;;2.60;;
25707;SDS011;13567;61.652;17.100;2022-11-11T17:53:52;15.27;;;2.78;;
25707;SDS011;13567;61.652;17.100;2022-11-11T17:56:19;12.80;;;2.63;;
25707;SDS011;13567;61.652;17.100;2022-11-11T17:58:46;11.60;;;2.47;;